createdAt,value
2023-03-02T03:52:56.997Z,0.77
2023-03-02T04:43:56.283Z,0.77
2023-03-02T04:44:56.315Z,0.76
2023-03-02T04:45:56.326Z,0.76
2023-03-02T04:46:56.375Z,0.76
2023-03-02T04:47:56.385Z,0.75
2023-03-02T04:48:56.374Z,0.75
2023-03-02T04:49:56.407Z,0.75
2023-03-02T04:50:56.408Z,0.75
2023-03-02T04:51:56.470Z,0.74
2023-03-02T04:52:56.475Z,0.75
2023-03-02T04:53:56.477Z,0.75
2023-03-02T04:54:56.544Z,0.75
2023-03-02T04:55:56.527Z,0.73
2023-03-02T04:56:56.606Z,0.75
2023-03-02T04:57:56.620Z,0.75
2023-03-02T04:58:56.653Z,0.73
2023-03-02T04:59:56.701Z,0.75
2023-03-02T05:00:56.704Z,0.75
2023-03-02T05:01:56.794Z,0.75
2023-03-02T05:02:56.775Z,0.74
2023-03-02T05:03:56.818Z,0.73
2023-03-02T05:04:56.871Z,0.75
2023-03-02T05:05:56.865Z,0.74
2023-03-02T05:06:56.906Z,0.74
2023-03-02T05:07:56.953Z,0.73
2023-03-02T05:08:56.959Z,0.73
2023-03-02T05:09:57.009Z,0.73
2023-03-02T05:10:57.006Z,0.76
2023-03-02T05:11:57.072Z,0.75
2023-03-02T05:12:57.021Z,0.73
2023-03-02T05:13:57.081Z,0.75
2023-03-02T05:14:57.097Z,0.75
2023-03-02T05:15:57.135Z,0.76
2023-03-02T05:20:57.222Z,0.76
2023-03-02T05:21:57.254Z,0.77
2023-03-02T05:22:57.219Z,0.73
2023-03-02T05:23:57.444Z,0.75
2023-03-02T05:24:57.285Z,0.75
2023-03-02T05:25:57.314Z,0.75
2023-03-02T05:26:57.327Z,0.75
2023-03-02T05:27:57.337Z,0.75
2023-03-02T05:28:57.331Z,0.74
2023-03-02T05:29:57.354Z,0.73
2023-03-02T05:30:57.338Z,0.74
2023-03-02T05:31:57.595Z,0.72
2023-03-02T05:32:57.403Z,0.75
2023-03-02T05:33:57.458Z,0.74
2023-03-02T05:34:57.413Z,0.75
2023-03-02T05:35:57.503Z,0.74
2023-03-02T05:36:57.495Z,0.74
2023-03-02T05:37:57.469Z,0.75
2023-03-02T05:38:57.518Z,0.74
2023-03-02T05:39:57.535Z,0.74
2023-03-02T05:40:57.539Z,0.73
2023-03-02T05:41:57.539Z,0.76
2023-03-02T05:42:57.581Z,0.74
2023-03-02T06:11:57.563Z,0.74
2023-03-02T06:12:57.559Z,0.73
2023-03-02T06:13:57.526Z,0.74
2023-03-02T06:14:57.494Z,0.76
2023-03-02T06:16:57.548Z,0.74
2023-03-02T06:18:57.439Z,0.76
2023-03-02T06:19:57.403Z,0.77
2023-03-02T06:22:57.321Z,0.76
2023-03-02T06:23:57.287Z,0.77
2023-03-02T06:24:57.273Z,0.77
2023-03-02T06:25:57.240Z,0.79
2023-03-02T06:26:57.242Z,0.78
2023-03-02T06:27:57.168Z,0.78
2023-03-02T06:28:57.189Z,0.81
2023-03-02T06:29:57.156Z,0.80
2023-03-02T06:30:57.174Z,0.81
2023-03-02T06:31:57.184Z,0.80
2023-03-02T06:32:57.082Z,0.84
2023-03-02T06:33:57.085Z,0.91
2023-03-02T06:34:57.133Z,1.33
2023-03-02T06:35:57.092Z,1.52
2023-03-02T06:36:57.015Z,1.58
2023-03-02T06:37:56.957Z,1.63
2023-03-02T06:38:56.925Z,1.74
2023-03-02T06:39:56.889Z,1.72
2023-03-02T06:40:57.099Z,1.65
2023-03-02T06:42:56.997Z,1.60
2023-03-02T06:43:57.009Z,1.54
2023-03-02T06:44:57.066Z,1.57
2023-03-02T06:45:57.210Z,1.57
2023-03-02T06:46:57.088Z,1.51
2023-03-02T06:47:57.124Z,1.56
2023-03-02T06:48:57.144Z,1.59
2023-03-02T06:49:57.129Z,1.65
2023-03-02T06:50:57.861Z,1.61
2023-03-02T06:51:57.152Z,1.70
2023-03-02T06:52:57.177Z,1.73
2023-03-02T06:53:57.230Z,1.73
2023-03-02T06:54:57.281Z,1.79
2023-03-02T06:55:57.616Z,1.84
2023-03-02T06:56:57.258Z,1.99
2023-03-02T06:57:57.274Z,2.00
2023-03-02T06:58:57.252Z,2.05
2023-03-02T06:59:57.223Z,2.07
2023-03-02T07:00:57.687Z,2.18
2023-03-02T07:01:58.183Z,2.25
2023-03-02T07:02:57.192Z,2.34
2023-03-02T07:03:57.274Z,2.34
2023-03-02T07:04:57.124Z,2.44
2023-03-02T07:05:57.222Z,2.52
2023-03-02T07:06:57.179Z,2.53
2023-03-02T07:07:57.151Z,2.63
2023-03-02T07:08:57.117Z,2.70
2023-03-02T07:09:57.152Z,2.70
2023-03-02T07:10:57.148Z,2.83
2023-03-02T07:11:57.164Z,2.78
2023-03-02T07:12:57.139Z,3.01
2023-03-02T07:13:57.185Z,2.97
2023-03-02T07:14:57.188Z,3.06
2023-03-02T07:15:57.227Z,3.11
2023-03-02T07:16:57.252Z,3.14
2023-03-02T07:17:57.252Z,3.31
2023-03-02T07:18:57.221Z,3.48
2023-03-02T07:19:57.243Z,3.87
2023-03-02T07:20:57.611Z,3.88
2023-03-02T07:21:57.136Z,3.93
2023-03-02T07:22:57.113Z,4.06
2023-03-02T07:23:57.061Z,4.22
2023-03-02T07:24:57.026Z,4.50
2023-03-02T07:25:57.089Z,4.55
2023-03-02T07:26:56.958Z,4.60
2023-03-02T07:27:56.895Z,4.73
2023-03-02T07:28:56.905Z,4.51
2023-03-02T07:29:56.866Z,4.61
2023-03-02T07:30:57.635Z,4.55
2023-03-02T07:31:56.884Z,4.60
2023-03-02T07:32:56.775Z,4.53
2023-03-02T07:33:56.748Z,4.51
2023-03-02T07:34:56.703Z,4.58
2023-03-02T07:35:57.156Z,4.51
2023-03-02T07:36:56.737Z,4.59
2023-03-02T07:37:56.701Z,4.45
2023-03-02T07:38:56.697Z,3.92
2023-03-02T07:39:58.368Z,3.90
2023-03-02T07:40:57.103Z,3.69
2023-03-02T07:41:56.762Z,3.74
2023-03-02T07:42:56.769Z,3.70
2023-03-02T07:43:56.806Z,3.67
2023-03-02T07:44:56.724Z,3.52
2023-03-02T07:45:59.477Z,3.62
2023-03-02T07:46:56.803Z,3.67
2023-03-02T07:47:56.678Z,3.77
2023-03-02T07:48:56.613Z,3.73
2023-03-02T07:49:56.577Z,3.66
2023-03-02T07:50:56.589Z,3.74
2023-03-02T07:51:56.543Z,3.61
2023-03-02T07:52:58.098Z,3.42
2023-03-02T07:53:56.424Z,3.43
2023-03-02T07:54:56.436Z,3.43
2023-03-02T07:55:56.374Z,3.44
2023-03-02T07:56:56.365Z,3.37
2023-03-02T07:57:56.326Z,3.29
2023-03-02T07:58:56.270Z,3.22
2023-03-02T07:59:56.240Z,3.20
2023-03-02T08:00:56.199Z,3.09
2023-03-02T08:01:56.240Z,2.98
2023-03-02T08:02:56.198Z,3.09
2023-03-02T08:03:56.093Z,3.03
2023-03-02T08:04:56.078Z,3.04
2023-03-02T08:05:56.017Z,3.08
2023-03-02T08:06:55.993Z,2.92
2023-03-02T08:07:55.946Z,3.01
2023-03-02T08:08:55.926Z,2.97
2023-03-02T08:09:55.915Z,2.97
2023-03-02T08:10:55.833Z,3.01
2023-03-02T08:11:55.807Z,2.94
2023-03-02T08:12:55.790Z,2.85
2023-03-02T08:13:55.729Z,2.44
2023-03-02T08:14:55.689Z,2.38
2023-03-02T08:15:56.211Z,2.39
2023-03-02T08:16:55.638Z,2.23
2023-03-02T08:17:55.591Z,2.26
2023-03-02T08:18:57.394Z,2.15
2023-03-02T08:19:55.561Z,2.15
2023-03-02T08:20:55.557Z,2.07
2023-03-02T08:21:55.470Z,2.03
2023-03-02T08:22:55.443Z,2.02
2023-03-02T08:23:55.456Z,2.00
2023-03-02T08:24:55.395Z,1.88
2023-03-02T08:25:55.411Z,1.85
2023-03-02T08:26:55.332Z,1.75
2023-03-02T08:27:55.295Z,1.66
2023-03-02T08:28:55.287Z,1.73
2023-03-02T08:29:55.249Z,1.70
2023-03-02T08:30:55.218Z,1.75
2023-03-02T08:31:55.743Z,1.68
2023-03-02T08:32:55.138Z,1.66
2023-03-02T08:33:55.136Z,1.69
2023-03-02T08:34:55.116Z,1.75
2023-03-02T08:35:55.108Z,1.89
2023-03-02T08:36:55.158Z,1.90
2023-03-02T08:37:55.020Z,1.94
2023-03-02T08:38:54.989Z,1.93
2023-03-02T08:40:54.935Z,1.84
2023-03-02T08:41:54.962Z,1.84
2023-03-02T08:42:54.901Z,1.84
2023-03-02T08:43:54.827Z,1.78
2023-03-02T08:47:54.753Z,1.41
2023-03-02T08:48:54.783Z,1.40
2023-03-02T08:49:55.623Z,1.34
2023-03-02T08:50:54.743Z,1.28
2023-03-02T08:51:55.156Z,1.21
2023-03-02T08:52:54.694Z,1.16
2023-03-02T08:53:54.703Z,1.20
2023-03-02T08:54:54.649Z,1.14
2023-03-02T08:55:54.626Z,1.16
2023-03-02T08:56:54.682Z,1.16
2023-03-02T08:57:54.692Z,1.18
2023-03-02T08:58:54.612Z,1.25
2023-03-02T09:00:54.558Z,1.35
2023-03-02T09:01:54.541Z,1.32
2023-03-02T09:02:54.504Z,1.25
2023-03-02T09:03:54.530Z,1.24
2023-03-02T09:04:54.583Z,1.24
2023-03-02T09:05:54.438Z,1.35
2023-03-02T09:06:54.495Z,1.24
2023-03-02T09:07:54.413Z,1.10
2023-03-02T09:08:54.436Z,0.98
2023-03-02T09:10:54.401Z,1.00
2023-03-02T09:11:54.695Z,1.08
2023-03-02T09:12:54.381Z,1.09
2023-03-02T09:13:54.324Z,1.13
2023-03-02T09:14:54.332Z,1.14
2023-03-02T09:15:54.357Z,1.08
2023-03-02T09:16:54.412Z,1.14
2023-03-02T09:17:54.346Z,1.23
2023-03-02T09:18:54.369Z,1.18
2023-03-02T09:19:54.370Z,1.20
2023-03-02T09:20:55.160Z,1.14
2023-03-02T09:21:54.386Z,1.10
2023-03-02T09:22:54.436Z,1.07
2023-03-02T09:23:54.406Z,1.12
2023-03-02T09:24:54.404Z,1.15
2023-03-02T09:25:54.443Z,1.18
2023-03-02T09:26:54.638Z,1.15
2023-03-02T09:27:54.382Z,1.16
2023-03-02T09:28:54.412Z,1.18
2023-03-02T09:29:54.411Z,1.15
2023-03-02T09:30:54.437Z,1.14
2023-03-02T09:31:54.771Z,1.06
2023-03-02T09:32:54.601Z,1.07
2023-03-02T09:33:54.375Z,1.10
2023-03-02T09:35:54.368Z,1.33
2023-03-02T09:36:54.326Z,1.28
2023-03-02T09:37:54.344Z,1.20
2023-03-02T09:38:54.368Z,1.21
2023-03-02T09:39:54.394Z,1.18
2023-03-02T09:40:54.366Z,1.21
2023-03-02T09:41:54.445Z,1.23
2023-03-02T09:44:54.395Z,1.24
2023-03-02T09:45:54.424Z,1.22
2023-03-02T09:46:54.419Z,1.23
2023-03-02T09:47:54.406Z,1.19
2023-03-02T09:48:54.396Z,1.13
2023-03-02T09:49:54.446Z,1.11
2023-03-02T09:50:54.797Z,1.08
2023-03-02T09:51:54.703Z,1.02
2023-03-02T09:52:54.368Z,0.97
2023-03-02T09:53:54.456Z,0.69
2023-03-02T09:55:54.413Z,0.54
2023-03-02T09:56:54.676Z,0.51
2023-03-02T09:57:54.616Z,0.52
2023-03-02T09:58:54.483Z,0.49
2023-03-02T09:59:54.533Z,0.48
2023-03-02T10:00:54.638Z,0.50
2023-03-02T10:01:54.624Z,0.50
2023-03-02T10:02:55.401Z,0.49
2023-03-02T10:03:54.777Z,0.46
2023-03-02T10:04:54.802Z,0.46
2023-03-02T10:05:54.752Z,0.50
2023-03-02T10:06:55.163Z,0.65
2023-03-02T10:07:54.769Z,0.77
2023-03-02T10:08:54.820Z,0.74
2023-03-02T10:09:54.818Z,0.70
2023-03-02T10:10:54.825Z,0.61
2023-03-02T10:11:55.324Z,0.63
2023-03-02T10:12:54.908Z,0.63
2023-03-02T10:13:54.903Z,0.74
2023-03-02T10:14:54.906Z,0.95
2023-03-02T10:15:55.006Z,1.02
2023-03-02T10:16:54.960Z,1.17
2023-03-02T10:17:55.041Z,1.20
2023-03-02T10:18:55.176Z,1.35
2023-03-02T10:19:55.060Z,1.35
2023-03-02T10:20:55.048Z,1.50
2023-03-02T10:27:55.250Z,2.36
2023-03-02T10:28:55.199Z,2.34
2023-03-02T10:29:55.326Z,2.43
2023-03-02T10:30:55.289Z,2.57
2023-03-02T10:31:55.286Z,2.67
2023-03-02T10:32:55.239Z,2.81
2023-03-02T10:33:55.202Z,2.96
2023-03-02T10:34:55.253Z,2.94
2023-03-02T10:35:55.249Z,3.02
2023-03-02T10:36:55.190Z,2.97
2023-03-02T10:37:55.174Z,3.19
2023-03-02T10:38:55.173Z,3.16
2023-03-02T10:39:55.169Z,3.16
2023-03-02T10:40:55.184Z,3.23
2023-03-02T10:41:55.165Z,3.21
2023-03-02T10:42:55.210Z,3.17
2023-03-02T10:43:55.190Z,3.13
2023-03-02T10:44:55.105Z,3.34
2023-03-02T10:45:55.162Z,3.83
2023-03-02T10:46:55.088Z,4.15
2023-03-02T10:47:55.209Z,4.45
2023-03-02T10:48:55.093Z,4.55
2023-03-02T10:49:55.073Z,4.26
2023-03-02T10:50:55.042Z,4.56
2023-03-02T10:51:55.070Z,5.11
2023-03-02T10:53:00.211Z,5.14
2023-03-02T10:53:56.206Z,5.14
2023-03-02T10:54:55.175Z,5.10
2023-03-02T10:55:55.212Z,4.97
2023-03-02T10:56:55.222Z,4.81
2023-03-02T10:57:55.194Z,4.84
2023-03-02T10:58:56.474Z,4.61
2023-03-02T10:59:55.307Z,4.64
2023-03-02T11:00:55.208Z,4.72
2023-03-02T11:01:55.261Z,4.63
2023-03-02T11:02:55.206Z,4.51
2023-03-02T11:03:55.240Z,4.50
2023-03-02T11:04:57.490Z,4.37
2023-03-02T11:05:55.451Z,4.46
2023-03-02T11:06:55.371Z,4.59
2023-03-02T11:07:55.348Z,4.73
2023-03-02T11:08:55.326Z,4.65
2023-03-02T11:09:55.310Z,4.62
2023-03-02T11:10:58.243Z,4.66
2023-03-02T11:11:56.303Z,4.67
2023-03-02T11:12:55.716Z,4.66
2023-03-02T11:13:55.170Z,4.60
2023-03-02T11:14:55.159Z,4.48
2023-03-02T11:15:55.179Z,4.44
2023-03-02T11:16:55.221Z,4.50
2023-03-02T11:17:55.261Z,4.44
2023-03-02T11:18:55.029Z,4.37
2023-03-02T11:19:55.050Z,3.77
2023-03-02T11:20:54.977Z,3.42
2023-03-02T11:21:54.974Z,3.41
2023-03-02T11:22:54.907Z,2.72
2023-03-02T11:23:54.893Z,2.47
2023-03-02T11:24:54.841Z,2.40
2023-03-02T11:25:54.866Z,1.80
2023-03-02T11:26:54.845Z,1.86
2023-03-02T11:27:54.836Z,1.81
2023-03-02T11:28:54.821Z,1.82
2023-03-02T11:29:54.824Z,1.80
2023-03-02T11:30:54.902Z,1.61
2023-03-02T11:31:55.011Z,1.58
2023-03-02T11:32:55.198Z,1.49
2023-03-02T11:33:57.842Z,1.19
2023-03-02T11:34:54.886Z,1.44
2023-03-02T11:35:54.878Z,1.76
2023-03-02T11:36:54.827Z,2.06
2023-03-02T11:37:55.201Z,2.26
2023-03-02T11:38:54.764Z,2.25
2023-03-02T11:39:55.936Z,2.25
2023-03-02T11:40:54.718Z,2.36
2023-03-02T11:41:54.703Z,2.56
2023-03-02T11:42:54.654Z,2.77
2023-03-02T11:43:54.614Z,2.96
2023-03-02T11:44:54.613Z,2.96
2023-03-02T11:45:54.581Z,2.55
2023-03-02T11:46:54.641Z,1.98
2023-03-02T11:48:02.552Z,1.79
2023-03-02T11:49:54.509Z,1.83
2023-03-02T11:50:54.495Z,1.90
2023-03-02T11:51:58.464Z,2.08
2023-03-02T11:52:54.730Z,1.81
2023-03-02T11:53:54.462Z,1.88
2023-03-02T11:54:54.395Z,1.98
2023-03-02T11:55:54.393Z,2.14
2023-03-02T11:56:54.431Z,2.27
2023-03-02T11:57:54.355Z,2.24
2023-03-02T11:58:54.291Z,2.35
2023-03-02T11:59:54.307Z,2.30
2023-03-02T12:00:54.269Z,2.25
2023-03-02T12:01:54.320Z,2.19
2023-03-02T12:02:54.225Z,2.27
2023-03-02T12:03:54.223Z,2.29
2023-03-02T12:04:54.167Z,2.24
2023-03-02T12:05:54.170Z,2.15
2023-03-02T12:06:54.136Z,2.13
2023-03-02T12:07:54.274Z,2.05
2023-03-02T12:08:54.133Z,2.05
2023-03-02T12:09:54.063Z,2.02
2023-03-02T12:10:54.065Z,2.01
2023-03-02T12:11:54.024Z,2.12
2023-03-02T12:12:53.985Z,2.22
2023-03-02T12:13:53.994Z,2.20
2023-03-02T12:14:53.946Z,2.22
2023-03-02T12:15:53.918Z,2.16
2023-03-02T12:16:54.036Z,2.04
2023-03-02T12:17:53.921Z,2.01
2023-03-02T12:18:53.860Z,1.86
2023-03-02T12:19:53.817Z,1.80
2023-03-02T12:20:53.798Z,1.69
2023-03-02T12:21:53.788Z,1.67
2023-03-02T12:22:53.839Z,1.57
2023-03-02T12:23:54.250Z,1.35
2023-03-02T12:24:53.847Z,1.16
2023-03-02T12:25:53.833Z,1.20
2023-03-02T12:26:53.871Z,0.77
2023-03-02T12:27:53.936Z,0.45
2023-03-02T12:28:54.221Z,0.67
2023-03-02T12:29:53.949Z,0.79
2023-03-02T12:30:54.012Z,1.02
2023-03-02T12:31:54.075Z,1.35
2023-03-02T12:32:54.019Z,1.53
2023-03-02T12:33:54.234Z,1.81
2023-03-02T12:34:54.081Z,2.03
2023-03-02T12:35:54.079Z,2.09
2023-03-02T12:36:54.198Z,2.16
2023-03-02T12:37:54.145Z,2.18
2023-03-02T12:38:54.223Z,2.28
2023-03-02T12:39:54.169Z,2.31
2023-03-02T12:41:54.196Z,2.41
2023-03-02T12:42:54.213Z,2.36
2023-03-02T12:43:54.268Z,2.23
2023-03-02T12:44:54.250Z,2.24
2023-03-02T12:45:54.288Z,2.20
2023-03-02T12:46:54.207Z,2.18
2023-03-02T12:47:54.272Z,2.19
2023-03-02T12:48:54.487Z,2.34
2023-03-02T12:49:54.238Z,2.34
2023-03-02T12:50:54.276Z,2.32
2023-03-02T12:51:54.438Z,2.15
2023-03-02T12:52:54.253Z,2.07
2023-03-02T12:53:54.260Z,2.14
2023-03-02T12:54:54.237Z,2.13
2023-03-02T12:55:54.308Z,2.06
2023-03-02T12:56:54.281Z,2.09
2023-03-02T12:57:54.255Z,2.08
2023-03-02T12:58:54.260Z,2.13
2023-03-02T12:59:54.252Z,2.20
2023-03-02T13:00:54.311Z,2.23
2023-03-02T13:01:54.266Z,2.23
2023-03-02T13:02:54.323Z,2.19
2023-03-02T13:03:54.280Z,2.16
2023-03-02T13:04:54.241Z,2.14
2023-03-02T13:05:54.261Z,2.12
2023-03-02T13:06:54.235Z,2.18
2023-03-02T13:07:54.252Z,2.32
2023-03-02T13:08:54.299Z,2.22
2023-03-02T13:09:56.889Z,2.16
2023-03-02T13:10:54.257Z,2.10
2023-03-02T13:11:54.209Z,1.99
2023-03-02T13:12:54.209Z,2.09
2023-03-02T13:13:54.184Z,2.14
2023-03-02T13:14:54.129Z,2.08
2023-03-02T13:15:54.096Z,2.03
2023-03-02T13:16:54.094Z,2.01
2023-03-02T13:17:54.058Z,2.03
2023-03-02T13:18:54.079Z,2.08
2023-03-02T13:19:54.021Z,2.05
2023-03-02T13:20:54.033Z,2.05
2023-03-02T13:21:53.986Z,2.10
2023-03-02T13:22:54.003Z,2.00
2023-03-02T13:23:53.939Z,1.97
2023-03-02T13:24:53.919Z,2.07
2023-03-02T13:25:53.902Z,1.93
2023-03-02T13:26:53.912Z,2.03
2023-03-02T13:27:53.936Z,2.01
2023-03-02T13:28:53.846Z,1.97
2023-03-02T13:29:53.809Z,1.98
2023-03-02T13:30:53.970Z,1.96
2023-03-02T13:31:53.806Z,1.99
2023-03-02T13:32:53.740Z,2.02
2023-03-02T13:33:53.745Z,2.00
2023-03-02T13:34:53.704Z,1.96
2023-03-02T13:35:53.673Z,1.79
2023-03-02T13:36:53.650Z,1.51
2023-03-02T13:37:53.654Z,1.47
2023-03-02T13:38:53.632Z,1.53
2023-03-02T13:39:53.585Z,1.70
2023-03-02T13:40:53.545Z,1.54
2023-03-02T13:41:53.512Z,1.62
2023-03-02T13:42:53.483Z,1.61
2023-03-02T13:43:53.481Z,1.58
2023-03-02T13:44:53.446Z,1.59
2023-03-02T13:45:53.533Z,1.58
2023-03-02T13:46:53.397Z,1.62
2023-03-02T13:47:53.338Z,1.72
2023-03-02T13:49:07.427Z,1.93
2023-03-02T13:49:54.333Z,1.93
2023-03-02T13:50:53.276Z,1.94
2023-03-02T13:51:53.212Z,1.97
2023-03-02T13:52:53.224Z,1.99
2023-03-02T13:53:53.158Z,1.95
2023-03-02T13:54:53.129Z,1.98
2023-03-02T13:55:53.150Z,1.99
2023-03-02T13:56:53.085Z,2.07
2023-03-02T13:57:53.067Z,2.00
2023-03-02T13:58:53.019Z,2.09
2023-03-02T13:59:53.052Z,2.15
2023-03-02T14:00:52.963Z,2.14
2023-03-02T14:01:52.916Z,2.14
2023-03-02T14:02:52.916Z,2.09
2023-03-02T14:03:52.886Z,2.08
2023-03-02T14:04:52.963Z,2.12
2023-03-02T14:05:52.851Z,2.17
2023-03-02T14:06:52.796Z,2.17
2023-03-02T14:07:52.789Z,2.00
2023-03-02T14:08:52.756Z,1.86
2023-03-02T14:09:52.685Z,1.80
2023-03-02T14:10:52.706Z,1.73
2023-03-02T14:11:52.700Z,1.70
2023-03-02T14:12:52.681Z,1.66
2023-03-02T14:13:52.753Z,1.59
2023-03-02T14:14:52.656Z,1.48
2023-03-02T14:15:52.614Z,1.48
2023-03-02T14:16:52.552Z,1.41
2023-03-02T14:17:52.588Z,1.46
2023-03-02T14:18:52.585Z,1.45
2023-03-02T14:19:52.523Z,1.50
2023-03-02T14:20:52.560Z,1.54
2023-03-02T14:21:52.492Z,1.54
2023-03-02T14:22:52.497Z,1.53
2023-03-02T14:23:52.845Z,1.47
2023-03-02T14:24:52.485Z,1.47
2023-03-02T14:25:52.484Z,1.43
2023-03-02T14:26:52.462Z,1.53
2023-03-02T14:27:52.476Z,1.47
2023-03-02T14:29:04.692Z,1.59
2023-03-02T14:29:53.435Z,1.59
2023-03-02T14:30:52.453Z,1.58
2023-03-02T14:31:52.438Z,1.59
2023-03-02T14:32:52.312Z,1.53
2023-03-02T14:33:52.757Z,1.58
2023-03-02T14:34:52.218Z,1.57
2023-03-02T14:35:52.219Z,1.56
2023-03-02T14:36:52.189Z,1.57
2023-03-02T14:37:52.122Z,1.46
2023-03-02T14:38:52.094Z,1.39
2023-03-02T14:39:54.179Z,1.49
2023-03-02T14:40:52.052Z,1.45
2023-03-02T14:41:54.127Z,1.44
2023-03-02T14:42:51.993Z,1.45
2023-03-02T14:43:51.880Z,1.36
2023-03-02T14:44:51.856Z,1.40
2023-03-02T14:45:51.834Z,1.46
2023-03-02T14:46:51.788Z,1.41
2023-03-02T14:47:51.734Z,1.38
2023-03-02T14:48:51.697Z,1.33
2023-03-02T14:49:51.733Z,1.34
2023-03-02T14:50:51.700Z,1.40
2023-03-02T14:51:51.720Z,1.34
2023-03-02T14:52:51.582Z,1.34
2023-03-02T14:53:51.525Z,1.34
2023-03-02T14:54:51.534Z,1.23
2023-03-02T14:55:51.675Z,1.25
2023-03-02T14:56:51.481Z,1.35
2023-03-02T14:57:51.438Z,1.28
2023-03-02T14:58:51.371Z,1.19
2023-03-02T14:59:51.940Z,1.16
2023-03-02T15:00:51.328Z,1.09
2023-03-02T15:01:51.326Z,1.10
2023-03-02T15:02:51.360Z,0.96
2023-03-02T15:03:51.217Z,0.95
2023-03-02T15:04:51.203Z,1.01
2023-03-02T15:06:00.832Z,1.02
2023-03-02T15:06:52.137Z,1.02
2023-03-02T15:07:51.114Z,1.01
2023-03-02T15:08:51.076Z,0.98
2023-03-02T15:09:51.057Z,1.03
2023-03-02T15:10:51.025Z,1.02
2023-03-02T15:11:50.971Z,1.05
2023-03-02T15:12:50.937Z,0.86
2023-03-02T15:13:50.916Z,0.87
2023-03-02T15:14:51.064Z,0.79
2023-03-02T15:15:50.924Z,0.82
2023-03-02T15:16:50.838Z,0.67
2023-03-02T15:17:50.806Z,0.69
2023-03-02T15:18:50.737Z,0.75
2023-03-02T15:19:50.762Z,0.73
2023-03-02T15:20:50.713Z,0.75
2023-03-02T15:21:50.694Z,0.78
2023-03-02T15:22:50.749Z,0.71
2023-03-02T15:23:50.798Z,0.74
2023-03-02T15:24:50.780Z,0.70
2023-03-02T15:25:50.754Z,0.63
2023-03-02T15:26:50.751Z,0.60
2023-03-02T15:27:50.775Z,0.60
2023-03-02T15:28:50.832Z,0.62
2023-03-02T15:29:50.828Z,0.60
2023-03-02T15:30:50.846Z,0.59
2023-03-02T15:31:51.881Z,0.54
2023-03-02T15:32:50.829Z,0.51
2023-03-02T15:33:50.846Z,0.50
2023-03-02T15:34:50.850Z,0.50
2023-03-02T15:35:51.020Z,0.51
2023-03-02T15:36:50.867Z,0.51
2023-03-02T15:37:50.912Z,0.51
2023-03-02T15:38:50.896Z,0.52
2023-03-02T15:39:50.916Z,0.53
2023-03-02T15:40:50.911Z,0.54
2023-03-02T15:41:50.969Z,0.59
2023-03-02T15:42:50.969Z,0.66
2023-03-02T15:43:51.011Z,0.67
2023-03-02T15:44:51.000Z,0.58
2023-03-02T15:45:50.973Z,0.55
2023-03-02T15:46:51.063Z,0.57
2023-03-02T15:47:51.003Z,0.61
2023-03-02T15:48:51.040Z,0.58
2023-03-02T15:49:51.045Z,0.59
2023-03-02T15:50:51.062Z,0.63
2023-03-02T15:51:51.108Z,0.59
2023-03-02T15:52:51.114Z,0.57
2023-03-02T15:53:51.140Z,0.51
2023-03-02T15:54:51.153Z,0.52
2023-03-02T15:55:51.220Z,0.51
2023-03-02T15:56:51.265Z,0.55
2023-03-02T15:57:51.202Z,0.61
2023-03-02T15:58:51.255Z,0.62
2023-03-02T15:59:51.276Z,0.67
2023-03-02T16:00:51.324Z,0.64
2023-03-02T16:01:51.274Z,0.63
2023-03-02T16:02:51.324Z,0.64
2023-03-02T16:03:51.347Z,0.71
2023-03-02T16:04:51.813Z,0.75
2023-03-02T16:05:51.407Z,0.78
2023-03-02T16:06:51.412Z,0.80
2023-03-02T16:07:51.458Z,0.84
2023-03-02T16:08:51.442Z,0.97
2023-03-02T16:09:51.491Z,1.00
2023-03-02T16:10:51.521Z,1.00
2023-03-02T16:11:51.516Z,1.10
2023-03-02T16:12:51.522Z,1.07
2023-03-02T16:13:51.529Z,1.14
2023-03-02T16:14:51.571Z,1.21
2023-03-02T16:15:51.554Z,1.19
2023-03-02T16:16:51.613Z,1.18
2023-03-02T16:17:51.583Z,1.11
2023-03-02T16:18:51.610Z,1.22
2023-03-02T16:19:51.609Z,1.38
2023-03-02T16:20:51.622Z,1.33
2023-03-02T16:21:51.639Z,1.47
2023-03-02T16:22:51.637Z,1.30
2023-03-02T16:23:51.633Z,1.29
2023-03-02T16:24:51.694Z,1.51
2023-03-02T16:25:51.642Z,1.47
2023-03-02T16:26:51.713Z,1.48
2023-03-02T16:27:51.704Z,1.38
2023-03-02T16:28:51.715Z,1.37
2023-03-02T16:29:51.706Z,1.59
2023-03-02T16:30:51.742Z,1.61
2023-03-02T16:31:51.827Z,1.54
2023-03-02T16:32:51.734Z,1.45
2023-03-02T16:33:51.759Z,1.41
2023-03-02T16:34:51.781Z,1.54
2023-03-02T16:35:51.778Z,1.64
2023-03-02T16:36:51.785Z,1.68
2023-03-02T16:37:51.813Z,1.74
2023-03-02T16:38:51.800Z,1.82
2023-03-02T16:39:51.860Z,1.76
2023-03-02T16:43:31.055Z,0.50
2023-03-02T16:44:31.013Z,0.50
2023-03-02T16:45:31.152Z,0.50
2023-03-02T16:46:31.060Z,0.50
2023-03-02T16:47:31.077Z,0.50
2023-03-02T16:48:31.130Z,0.51
2023-03-02T16:49:31.191Z,0.54
2023-03-02T16:50:31.203Z,0.54
2023-03-02T16:51:31.176Z,0.53
2023-03-02T16:52:31.171Z,0.51
2023-03-02T16:53:31.207Z,0.52
2023-03-02T16:54:31.235Z,0.54
2023-03-02T16:55:31.257Z,0.51
2023-03-02T16:56:31.267Z,0.55
2023-03-02T16:57:31.355Z,0.52
2023-03-02T16:58:31.296Z,0.54
2023-03-02T16:59:31.315Z,0.55
2023-03-02T17:00:31.454Z,0.56
2023-03-02T17:01:31.404Z,0.55
2023-03-02T17:02:31.381Z,0.56
2023-03-02T17:03:31.382Z,0.55
2023-03-02T17:04:31.439Z,0.52
2023-03-02T17:05:31.419Z,0.51
2023-03-02T17:06:31.454Z,0.51
2023-03-02T17:07:31.448Z,0.55
2023-03-02T17:08:31.481Z,0.51
2023-03-02T17:09:31.478Z,0.55
2023-03-02T17:10:31.547Z,0.54
2023-03-02T17:11:31.555Z,0.54
2023-03-02T17:12:31.547Z,0.52
2023-03-02T17:13:31.548Z,0.53
2023-03-02T17:14:31.574Z,0.56
2023-03-02T17:15:31.593Z,0.56
2023-03-02T17:16:31.620Z,0.59
2023-03-02T17:17:31.636Z,0.59
2023-03-02T17:18:31.647Z,0.59
2023-03-02T17:19:31.636Z,0.60
2023-03-02T17:20:31.679Z,0.57
2023-03-02T17:21:32.368Z,0.59
2023-03-02T17:22:31.718Z,0.59
2023-03-02T17:23:31.740Z,0.61
2023-03-02T17:24:31.754Z,0.59
2023-03-02T17:25:31.768Z,0.60
2023-03-02T17:26:31.846Z,0.60
2023-03-02T17:27:31.807Z,0.60
2023-03-02T17:28:31.812Z,0.61
2023-03-02T17:29:31.845Z,0.63
2023-03-02T17:30:31.875Z,0.62
2023-03-02T17:31:31.941Z,0.62
2023-03-02T17:32:31.993Z,0.62
2023-03-02T17:33:31.930Z,0.61
2023-03-02T17:34:31.935Z,0.60
2023-03-02T17:35:31.944Z,0.61
2023-03-02T17:36:31.965Z,0.60
2023-03-02T17:37:31.981Z,0.63
2023-03-02T17:38:31.989Z,0.64
2023-03-02T17:39:32.031Z,0.64
2023-03-02T17:40:32.562Z,0.64
2023-03-02T17:41:32.043Z,0.65
2023-03-02T17:42:32.063Z,0.64
2023-03-02T17:43:32.051Z,0.62
2023-03-02T17:44:32.114Z,0.64
2023-03-02T17:45:32.121Z,0.63
2023-03-02T17:46:32.223Z,0.64
2023-03-02T17:47:32.160Z,0.65
2023-03-02T17:48:32.176Z,0.65
2023-03-02T17:49:32.504Z,0.62
2023-03-02T17:50:32.229Z,0.62
2023-03-02T17:51:32.235Z,0.60
2023-03-02T17:52:32.228Z,0.62
2023-03-02T17:53:32.246Z,0.61
2023-03-02T17:54:32.301Z,0.62
2023-03-02T17:55:32.305Z,0.67
2023-03-02T17:56:32.321Z,0.64
2023-03-02T17:57:32.336Z,0.64
2023-03-02T17:58:44.273Z,0.67
2023-03-02T17:59:33.382Z,0.67
2023-03-02T18:00:32.438Z,0.67
2023-03-02T18:01:32.384Z,0.67
2023-03-02T18:02:32.426Z,0.64
2023-03-02T18:03:32.518Z,0.65
2023-03-02T18:04:32.490Z,0.65
2023-03-02T18:05:32.484Z,0.64
2023-03-02T18:06:32.472Z,0.63
2023-03-02T18:07:32.533Z,0.61
2023-03-02T18:08:32.548Z,0.62
2023-03-02T18:09:32.539Z,0.61
2023-03-02T18:10:32.555Z,0.61
2023-03-02T18:11:32.595Z,0.63
2023-03-02T18:12:32.612Z,0.62
2023-03-02T18:13:32.648Z,0.62
2023-03-02T18:14:32.645Z,0.62
2023-03-02T18:15:32.697Z,0.62
2023-03-02T18:16:32.762Z,0.62
2023-03-02T18:17:32.696Z,0.62
2023-03-02T18:18:32.711Z,0.61
2023-03-02T18:19:32.744Z,0.62
2023-03-02T18:20:32.722Z,0.62
2023-03-02T18:21:32.783Z,0.61
2023-03-02T18:22:32.782Z,0.60
2023-03-02T18:23:32.808Z,0.61
2023-03-02T18:24:32.865Z,0.61
2023-03-02T18:25:32.917Z,0.60
2023-03-02T18:26:32.928Z,0.59
2023-03-02T18:27:33.024Z,0.59
2023-03-02T18:28:33.048Z,0.59
2023-03-02T18:29:33.083Z,0.59
2023-03-02T18:30:33.121Z,0.59
2023-03-02T18:31:33.182Z,0.59
2023-03-02T18:32:33.373Z,0.57
2023-03-02T18:33:33.241Z,0.58
2023-03-02T18:34:33.258Z,0.58
2023-03-02T18:35:33.298Z,0.54
2023-03-02T18:36:33.355Z,0.53
2023-03-02T18:37:33.410Z,0.55
2023-03-02T18:38:33.409Z,0.54
2023-03-02T18:39:33.509Z,0.55
2023-03-02T18:40:33.533Z,0.56
2023-03-02T18:41:33.549Z,0.56
2023-03-02T18:42:33.600Z,0.57
2023-03-02T18:43:33.616Z,0.57
2023-03-02T18:44:33.678Z,0.58
2023-03-02T18:45:33.748Z,0.59
2023-03-02T18:46:33.793Z,0.60
2023-03-02T18:47:33.780Z,0.61
2023-03-02T18:48:33.840Z,0.60
2023-03-02T18:49:33.878Z,0.61
2023-03-02T18:50:33.891Z,0.60
2023-03-02T18:51:33.933Z,0.62
2023-03-02T18:52:33.960Z,0.61
2023-03-02T18:53:34.036Z,0.60
2023-03-02T18:54:34.055Z,0.61
2023-03-02T18:55:34.076Z,0.63
2023-03-02T19:11:54.298Z,0.50
2023-03-02T19:12:54.288Z,0.50
2023-03-02T19:13:54.278Z,0.50